sensor_id;sensor_type;location;lat;lon;timestamp;P1;durP1;ratioP1;P2;durP2;ratioP2
72569;SDS011;60594;50.204;8.844;2023-03-03T00:01:38;11.95;;;6.30;;
72569;SDS011;60594;50.204;8.844;2023-03-03T00:04:05;12.50;;;5.97;;
72569;SDS011;60594;50.204;8.844;2023-03-03T00:06:32;13.52;;;7.00;;
72569;SDS011;60594;50.204;8.844;2023-03-03T00:08:58;14.10;;;6.75;;
72569;SDS011;60594;50.204;8.844;2023-03-03T00:11:25;12.68;;;7.03;;
72569;SDS011;60594;50.204;8.844;2023-03-03T00:13:52;14.82;;;6.82;;
72569;SDS011;60594;50.204;8.844;2023-03-03T00:18:48;12.63;;;6.20;;
72569;SDS011;60594;50.204;8.844;2023-03-03T00:21:19;11.75;;;6.47;;
72569;SDS011;60594;50.204;8.844;2023-03-03T00:23:48;15.93;;;8.07;;
72569;SDS011;60594;50.204;8.844;2023-03-03T00:26:19;12.80;;;7.10;;
72569;SDS011;60594;50.204;8.844;2023-03-03T00:28:59;15.45;;;6.75;;
72569;SDS011;60594;50.204;8.844;2023-03-03T00:31:33;13.77;;;7.07;;
72569;SDS011;60594;50.204;8.844;2023-03-03T00:37:01;13.98;;;7.00;;
72569;SDS011;60594;50.204;8.844;2023-03-03T00:42:11;13.43;;;7.30;;
72569;SDS011;60594;50.204;8.844;2023-03-03T00:44:41;12.50;;;6.03;;
72569;SDS011;60594;50.204;8.844;2023-03-03T00:49:53;14.32;;;7.53;;
72569;SDS011;60594;50.204;8.844;2023-03-03T00:52:21;13.00;;;7.05;;
72569;SDS011;60594;50.204;8.844;2023-03-03T00:54:53;14.13;;;7.38;;
72569;SDS011;60594;50.204;8.844;2023-03-03T00:57:19;15.27;;;8.00;;
72569;SDS011;60594;50.204;8.844;2023-03-03T00:59:46;15.70;;;8.23;;
72569;SDS011;60594;50.204;8.844;2023-03-03T01:02:12;16.15;;;7.68;;
72569;SDS011;60594;50.204;8.844;2023-03-03T01:04:39;14.27;;;7.85;;
72569;SDS011;60594;50.204;8.844;2023-03-03T01:07:09;16.38;;;7.75;;
72569;SDS011;60594;50.204;8.844;2023-03-03T01:09:35;16.45;;;7.95;;
72569;SDS011;60594;50.204;8.844;2023-03-03T01:12:02;13.82;;;7.47;;
72569;SDS011;60594;50.204;8.844;2023-03-03T01:14:28;17.25;;;8.35;;
72569;SDS011;60594;50.204;8.844;2023-03-03T01:16:55;15.45;;;7.95;;
72569;SDS011;60594;50.204;8.844;2023-03-03T01:19:21;18.58;;;8.45;;
72569;SDS011;60594;50.204;8.844;2023-03-03T01:21:47;17.40;;;9.10;;
72569;SDS011;60594;50.204;8.844;2023-03-03T01:24:14;20.10;;;9.02;;
72569;SDS011;60594;50.204;8.844;2023-03-03T01:26:40;16.45;;;8.20;;
72569;SDS011;60594;50.204;8.844;2023-03-03T01:29:07;18.92;;;10.25;;
72569;SDS011;60594;50.204;8.844;2023-03-03T01:31:34;18.27;;;8.52;;
72569;SDS011;60594;50.204;8.844;2023-03-03T01:34:00;21.50;;;9.18;;
72569;SDS011;60594;50.204;8.844;2023-03-03T01:36:27;17.73;;;9.18;;
72569;SDS011;60594;50.204;8.844;2023-03-03T01:38:54;18.65;;;9.25;;
72569;SDS011;60594;50.204;8.844;2023-03-03T01:41:21;16.15;;;8.80;;
72569;SDS011;60594;50.204;8.844;2023-03-03T01:43:48;21.50;;;10.13;;
72569;SDS011;60594;50.204;8.844;2023-03-03T01:46:29;18.33;;;9.32;;
72569;SDS011;60594;50.204;8.844;2023-03-03T01:49:00;23.65;;;9.98;;
72569;SDS011;60594;50.204;8.844;2023-03-03T01:51:32;19.95;;;9.15;;
72569;SDS011;60594;50.204;8.844;2023-03-03T01:54:05;16.63;;;9.65;;
72569;SDS011;60594;50.204;8.844;2023-03-03T01:56:37;19.65;;;9.35;;
72569;SDS011;60594;50.204;8.844;2023-03-03T01:59:06;17.90;;;9.57;;
72569;SDS011;60594;50.204;8.844;2023-03-03T02:01:38;18.90;;;9.30;;
72569;SDS011;60594;50.204;8.844;2023-03-03T02:06:37;13.80;;;8.00;;
72569;SDS011;60594;50.204;8.844;2023-03-03T02:09:09;16.65;;;8.32;;
72569;SDS011;60594;50.204;8.844;2023-03-03T02:11:43;17.90;;;9.23;;
72569;SDS011;60594;50.204;8.844;2023-03-03T02:14:12;17.42;;;8.73;;
72569;SDS011;60594;50.204;8.844;2023-03-03T02:16:42;18.73;;;9.27;;
72569;SDS011;60594;50.204;8.844;2023-03-03T02:19:12;21.88;;;8.95;;
72569;SDS011;60594;50.204;8.844;2023-03-03T02:21:48;23.55;;;9.48;;
72569;SDS011;60594;50.204;8.844;2023-03-03T02:24:26;18.23;;;9.57;;
72569;SDS011;60594;50.204;8.844;2023-03-03T02:26:58;19.58;;;8.77;;
72569;SDS011;60594;50.204;8.844;2023-03-03T02:29:25;19.45;;;9.90;;
72569;SDS011;60594;50.204;8.844;2023-03-03T02:31:52;17.00;;;9.05;;
72569;SDS011;60594;50.204;8.844;2023-03-03T02:34:21;21.60;;;10.45;;
72569;SDS011;60594;50.204;8.844;2023-03-03T02:36:47;23.05;;;11.13;;
72569;SDS011;60594;50.204;8.844;2023-03-03T02:39:24;20.17;;;10.38;;
72569;SDS011;60594;50.204;8.844;2023-03-03T02:44:32;20.92;;;8.85;;
72569;SDS011;60594;50.204;8.844;2023-03-03T02:46:59;20.63;;;9.77;;
72569;SDS011;60594;50.204;8.844;2023-03-03T02:49:31;26.67;;;9.85;;
72569;SDS011;60594;50.204;8.844;2023-03-03T02:51:59;19.70;;;10.73;;
72569;SDS011;60594;50.204;8.844;2023-03-03T02:54:28;23.20;;;10.98;;
72569;SDS011;60594;50.204;8.844;2023-03-03T02:56:57;18.23;;;9.73;;
72569;SDS011;60594;50.204;8.844;2023-03-03T02:59:26;24.33;;;10.15;;
72569;SDS011;60594;50.204;8.844;2023-03-03T03:01:54;22.92;;;10.27;;
72569;SDS011;60594;50.204;8.844;2023-03-03T03:04:22;19.70;;;9.43;;
72569;SDS011;60594;50.204;8.844;2023-03-03T03:06:51;24.05;;;9.40;;
72569;SDS011;60594;50.204;8.844;2023-03-03T03:09:19;24.80;;;12.40;;
72569;SDS011;60594;50.204;8.844;2023-03-03T03:11:49;20.65;;;10.40;;
72569;SDS011;60594;50.204;8.844;2023-03-03T03:14:19;24.25;;;10.70;;
72569;SDS011;60594;50.204;8.844;2023-03-03T03:16:45;25.02;;;11.93;;
72569;SDS011;60594;50.204;8.844;2023-03-03T03:19:12;21.17;;;10.07;;
72569;SDS011;60594;50.204;8.844;2023-03-03T03:21:39;26.50;;;10.93;;
72569;SDS011;60594;50.204;8.844;2023-03-03T03:24:08;22.25;;;9.90;;
72569;SDS011;60594;50.204;8.844;2023-03-03T03:26:36;22.48;;;9.30;;
72569;SDS011;60594;50.204;8.844;2023-03-03T03:29:03;28.77;;;11.95;;
72569;SDS011;60594;50.204;8.844;2023-03-03T03:31:30;20.02;;;10.63;;
72569;SDS011;60594;50.204;8.844;2023-03-03T03:33:57;24.98;;;11.88;;
72569;SDS011;60594;50.204;8.844;2023-03-03T03:36:26;24.63;;;11.35;;
72569;SDS011;60594;50.204;8.844;2023-03-03T03:38:54;22.10;;;11.30;;
72569;SDS011;60594;50.204;8.844;2023-03-03T03:41:21;20.60;;;10.30;;
72569;SDS011;60594;50.204;8.844;2023-03-03T03:43:48;19.80;;;10.27;;
72569;SDS011;60594;50.204;8.844;2023-03-03T03:46:15;25.30;;;11.80;;
72569;SDS011;60594;50.204;8.844;2023-03-03T03:48:41;21.85;;;10.38;;
72569;SDS011;60594;50.204;8.844;2023-03-03T03:51:10;23.15;;;10.13;;
72569;SDS011;60594;50.204;8.844;2023-03-03T03:53:38;23.13;;;11.23;;
72569;SDS011;60594;50.204;8.844;2023-03-03T03:56:05;27.05;;;11.00;;
72569;SDS011;60594;50.204;8.844;2023-03-03T03:58:32;27.33;;;11.52;;
72569;SDS011;60594;50.204;8.844;2023-03-03T04:01:03;20.92;;;9.73;;
72569;SDS011;60594;50.204;8.844;2023-03-03T04:03:33;30.67;;;11.38;;
72569;SDS011;60594;50.204;8.844;2023-03-03T04:06:00;27.10;;;11.93;;
72569;SDS011;60594;50.204;8.844;2023-03-03T04:08:27;25.33;;;11.05;;
72569;SDS011;60594;50.204;8.844;2023-03-03T04:10:54;20.92;;;11.27;;
72569;SDS011;60594;50.204;8.844;2023-03-03T04:13:20;26.30;;;11.38;;
72569;SDS011;60594;50.204;8.844;2023-03-03T04:15:48;25.08;;;11.23;;
72569;SDS011;60594;50.204;8.844;2023-03-03T04:18:15;22.67;;;10.43;;
72569;SDS011;60594;50.204;8.844;2023-03-03T04:20:41;31.65;;;14.88;;
72569;SDS011;60594;50.204;8.844;2023-03-03T04:23:09;22.17;;;10.82;;
72569;SDS011;60594;50.204;8.844;2023-03-03T04:25:36;22.55;;;10.45;;
72569;SDS011;60594;50.204;8.844;2023-03-03T04:28:10;27.67;;;12.05;;
72569;SDS011;60594;50.204;8.844;2023-03-03T04:30:36;27.08;;;14.18;;
72569;SDS011;60594;50.204;8.844;2023-03-03T04:33:03;28.23;;;11.90;;
72569;SDS011;60594;50.204;8.844;2023-03-03T04:35:30;28.10;;;11.82;;
72569;SDS011;60594;50.204;8.844;2023-03-03T04:37:57;26.13;;;11.80;;
72569;SDS011;60594;50.204;8.844;2023-03-03T04:40:24;26.15;;;12.10;;
72569;SDS011;60594;50.204;8.844;2023-03-03T04:42:51;30.50;;;12.63;;
72569;SDS011;60594;50.204;8.844;2023-03-03T04:45:17;24.77;;;12.50;;
72569;SDS011;60594;50.204;8.844;2023-03-03T04:47:45;27.75;;;11.10;;
72569;SDS011;60594;50.204;8.844;2023-03-03T04:50:12;22.80;;;10.38;;
72569;SDS011;60594;50.204;8.844;2023-03-03T04:52:38;26.83;;;12.10;;
72569;SDS011;60594;50.204;8.844;2023-03-03T04:55:07;25.23;;;13.32;;
72569;SDS011;60594;50.204;8.844;2023-03-03T04:57:35;23.25;;;11.65;;
72569;SDS011;60594;50.204;8.844;2023-03-03T05:00:02;31.58;;;12.75;;
72569;SDS011;60594;50.204;8.844;2023-03-03T05:02:31;26.20;;;10.20;;
72569;SDS011;60594;50.204;8.844;2023-03-03T05:04:57;26.42;;;10.77;;
72569;SDS011;60594;50.204;8.844;2023-03-03T05:07:24;26.92;;;11.60;;
72569;SDS011;60594;50.204;8.844;2023-03-03T05:09:50;30.42;;;11.85;;
72569;SDS011;60594;50.204;8.844;2023-03-03T05:12:17;24.25;;;12.70;;
72569;SDS011;60594;50.204;8.844;2023-03-03T05:14:44;29.25;;;15.07;;
72569;SDS011;60594;50.204;8.844;2023-03-03T05:17:11;21.95;;;9.82;;
72569;SDS011;60594;50.204;8.844;2023-03-03T05:19:37;26.77;;;12.93;;
72569;SDS011;60594;50.204;8.844;2023-03-03T05:22:03;27.45;;;11.00;;
72569;SDS011;60594;50.204;8.844;2023-03-03T05:24:30;23.63;;;13.25;;
72569;SDS011;60594;50.204;8.844;2023-03-03T05:26:56;29.65;;;14.38;;
72569;SDS011;60594;50.204;8.844;2023-03-03T05:29:23;30.48;;;12.88;;
72569;SDS011;60594;50.204;8.844;2023-03-03T05:31:49;26.85;;;11.25;;
72569;SDS011;60594;50.204;8.844;2023-03-03T05:34:16;31.27;;;12.35;;
72569;SDS011;60594;50.204;8.844;2023-03-03T05:36:42;22.77;;;10.48;;
72569;SDS011;60594;50.204;8.844;2023-03-03T05:39:09;26.00;;;11.52;;
72569;SDS011;60594;50.204;8.844;2023-03-03T05:41:35;28.77;;;12.30;;
72569;SDS011;60594;50.204;8.844;2023-03-03T05:44:02;23.08;;;10.95;;
72569;SDS011;60594;50.204;8.844;2023-03-03T05:46:29;20.75;;;10.38;;
72569;SDS011;60594;50.204;8.844;2023-03-03T05:48:55;26.38;;;12.32;;
72569;SDS011;60594;50.204;8.844;2023-03-03T05:51:22;28.45;;;13.85;;
72569;SDS011;60594;50.204;8.844;2023-03-03T05:53:48;28.42;;;11.73;;
72569;SDS011;60594;50.204;8.844;2023-03-03T05:56:15;29.52;;;14.18;;
72569;SDS011;60594;50.204;8.844;2023-03-03T05:58:41;24.83;;;12.27;;
72569;SDS011;60594;50.204;8.844;2023-03-03T06:01:08;27.85;;;11.82;;
72569;SDS011;60594;50.204;8.844;2023-03-03T06:03:34;24.27;;;11.45;;
72569;SDS011;60594;50.204;8.844;2023-03-03T06:06:01;31.92;;;13.27;;
72569;SDS011;60594;50.204;8.844;2023-03-03T06:08:27;28.42;;;13.18;;
72569;SDS011;60594;50.204;8.844;2023-03-03T06:10:54;26.67;;;12.60;;
72569;SDS011;60594;50.204;8.844;2023-03-03T06:13:21;27.85;;;11.88;;
72569;SDS011;60594;50.204;8.844;2023-03-03T06:15:48;27.15;;;13.85;;
72569;SDS011;60594;50.204;8.844;2023-03-03T06:18:14;30.85;;;13.60;;
72569;SDS011;60594;50.204;8.844;2023-03-03T06:20:41;26.70;;;11.90;;
72569;SDS011;60594;50.204;8.844;2023-03-03T06:23:07;30.00;;;12.50;;
72569;SDS011;60594;50.204;8.844;2023-03-03T06:25:34;25.30;;;10.32;;
72569;SDS011;60594;50.204;8.844;2023-03-03T06:28:02;21.52;;;11.98;;
72569;SDS011;60594;50.204;8.844;2023-03-03T06:30:29;20.45;;;11.15;;
72569;SDS011;60594;50.204;8.844;2023-03-03T06:32:55;24.83;;;10.50;;
72569;SDS011;60594;50.204;8.844;2023-03-03T06:35:22;25.30;;;11.07;;
72569;SDS011;60594;50.204;8.844;2023-03-03T06:37:48;25.20;;;11.02;;
72569;SDS011;60594;50.204;8.844;2023-03-03T06:40:16;24.13;;;11.70;;
72569;SDS011;60594;50.204;8.844;2023-03-03T06:42:42;22.90;;;10.02;;
72569;SDS011;60594;50.204;8.844;2023-03-03T06:45:09;25.23;;;11.30;;
72569;SDS011;60594;50.204;8.844;2023-03-03T06:47:36;26.98;;;12.65;;
72569;SDS011;60594;50.204;8.844;2023-03-03T06:50:03;29.55;;;12.05;;
72569;SDS011;60594;50.204;8.844;2023-03-03T06:52:29;24.98;;;11.57;;
72569;SDS011;60594;50.204;8.844;2023-03-03T06:54:57;26.40;;;11.55;;
72569;SDS011;60594;50.204;8.844;2023-03-03T06:59:57;25.38;;;11.15;;
72569;SDS011;60594;50.204;8.844;2023-03-03T07:02:27;21.33;;;10.50;;
72569;SDS011;60594;50.204;8.844;2023-03-03T07:04:54;32.25;;;13.63;;
72569;SDS011;60594;50.204;8.844;2023-03-03T07:07:22;25.10;;;12.02;;
72569;SDS011;60594;50.204;8.844;2023-03-03T07:09:52;26.92;;;12.48;;
72569;SDS011;60594;50.204;8.844;2023-03-03T07:12:20;31.80;;;14.30;;
72569;SDS011;60594;50.204;8.844;2023-03-03T07:14:51;32.10;;;13.25;;
72569;SDS011;60594;50.204;8.844;2023-03-03T07:17:22;27.08;;;13.07;;
72569;SDS011;60594;50.204;8.844;2023-03-03T07:19:50;25.88;;;11.55;;
72569;SDS011;60594;50.204;8.844;2023-03-03T07:22:19;23.27;;;11.15;;
72569;SDS011;60594;50.204;8.844;2023-03-03T07:24:49;26.05;;;12.55;;
72569;SDS011;60594;50.204;8.844;2023-03-03T07:27:24;35.08;;;14.20;;
72569;SDS011;60594;50.204;8.844;2023-03-03T07:29:53;28.35;;;11.93;;
72569;SDS011;60594;50.204;8.844;2023-03-03T07:35:19;31.88;;;14.40;;
72569;SDS011;60594;50.204;8.844;2023-03-03T07:37:54;28.83;;;12.85;;
72569;SDS011;60594;50.204;8.844;2023-03-03T07:40:33;32.72;;;12.95;;
72569;SDS011;60594;50.204;8.844;2023-03-03T07:43:01;33.00;;;12.73;;
72569;SDS011;60594;50.204;8.844;2023-03-03T07:45:41;28.77;;;12.88;;
72569;SDS011;60594;50.204;8.844;2023-03-03T07:48:14;29.67;;;12.15;;
72569;SDS011;60594;50.204;8.844;2023-03-03T07:50:49;31.92;;;13.77;;
72569;SDS011;60594;50.204;8.844;2023-03-03T07:53:34;30.17;;;14.05;;
72569;SDS011;60594;50.204;8.844;2023-03-03T07:59:01;33.33;;;13.38;;
72569;SDS011;60594;50.204;8.844;2023-03-03T08:01:44;28.80;;;12.50;;
72569;SDS011;60594;50.204;8.844;2023-03-03T08:04:43;30.17;;;13.75;;
72569;SDS011;60594;50.204;8.844;2023-03-03T08:07:18;29.45;;;13.90;;
72569;SDS011;60594;50.204;8.844;2023-03-03T08:09:46;29.00;;;12.82;;
72569;SDS011;60594;50.204;8.844;2023-03-03T08:15:14;33.80;;;14.93;;
72569;SDS011;60594;50.204;8.844;2023-03-03T08:17:43;30.67;;;13.52;;
72569;SDS011;60594;50.204;8.844;2023-03-03T08:23:09;28.88;;;12.13;;
72569;SDS011;60594;50.204;8.844;2023-03-03T08:25:35;25.35;;;11.55;;
72569;SDS011;60594;50.204;8.844;2023-03-03T08:28:02;28.15;;;13.10;;
72569;SDS011;60594;50.204;8.844;2023-03-03T08:30:29;26.67;;;10.93;;
72569;SDS011;60594;50.204;8.844;2023-03-03T08:32:57;25.75;;;11.55;;
72569;SDS011;60594;50.204;8.844;2023-03-03T08:35:23;26.75;;;12.20;;
72569;SDS011;60594;50.204;8.844;2023-03-03T08:37:50;21.40;;;10.45;;
72569;SDS011;60594;50.204;8.844;2023-03-03T08:40:16;22.48;;;10.60;;
72569;SDS011;60594;50.204;8.844;2023-03-03T08:42:43;25.33;;;11.32;;
72569;SDS011;60594;50.204;8.844;2023-03-03T08:45:09;23.75;;;10.65;;
72569;SDS011;60594;50.204;8.844;2023-03-03T08:47:37;24.88;;;11.55;;
72569;SDS011;60594;50.204;8.844;2023-03-03T08:50:04;21.73;;;9.65;;
72569;SDS011;60594;50.204;8.844;2023-03-03T08:52:32;24.17;;;10.30;;
72569;SDS011;60594;50.204;8.844;2023-03-03T08:54:59;24.35;;;10.50;;
72569;SDS011;60594;50.204;8.844;2023-03-03T08:57:26;22.38;;;10.13;;
72569;SDS011;60594;50.204;8.844;2023-03-03T08:59:52;22.73;;;10.02;;
72569;SDS011;60594;50.204;8.844;2023-03-03T09:02:18;21.77;;;10.10;;
72569;SDS011;60594;50.204;8.844;2023-03-03T09:04:45;21.75;;;9.57;;
72569;SDS011;60594;50.204;8.844;2023-03-03T09:07:12;21.67;;;10.20;;
72569;SDS011;60594;50.204;8.844;2023-03-03T09:09:38;20.30;;;10.60;;
72569;SDS011;60594;50.204;8.844;2023-03-03T09:12:09;24.77;;;11.15;;
72569;SDS011;60594;50.204;8.844;2023-03-03T09:14:40;23.80;;;11.63;;
72569;SDS011;60594;50.204;8.844;2023-03-03T09:17:29;22.83;;;11.07;;
72569;SDS011;60594;50.204;8.844;2023-03-03T09:20:43;21.88;;;9.70;;
72569;SDS011;60594;50.204;8.844;2023-03-03T09:22:53;23.08;;;9.63;;
72569;SDS011;60594;50.204;8.844;2023-03-03T09:27:51;21.65;;;8.80;;
72569;SDS011;60594;50.204;8.844;2023-03-03T09:32:52;23.23;;;11.18;;
72569;SDS011;60594;50.204;8.844;2023-03-03T09:35:25;18.45;;;8.25;;
72569;SDS011;60594;50.204;8.844;2023-03-03T09:37:53;23.25;;;10.52;;
72569;SDS011;60594;50.204;8.844;2023-03-03T09:40:39;19.95;;;10.07;;
72569;SDS011;60594;50.204;8.844;2023-03-03T09:43:35;22.38;;;9.63;;
72569;SDS011;60594;50.204;8.844;2023-03-03T09:46:15;19.77;;;9.05;;
72569;SDS011;60594;50.204;8.844;2023-03-03T09:54:31;22.88;;;8.65;;
72569;SDS011;60594;50.204;8.844;2023-03-03T09:57:15;20.58;;;9.63;;
72569;SDS011;60594;50.204;8.844;2023-03-03T10:05:16;18.15;;;8.32;;
72569;SDS011;60594;50.204;8.844;2023-03-03T10:10:33;16.45;;;8.05;;
72569;SDS011;60594;50.204;8.844;2023-03-03T10:15:52;20.50;;;8.10;;
72569;SDS011;60594;50.204;8.844;2023-03-03T10:24:01;15.23;;;7.63;;
72569;SDS011;60594;50.204;8.844;2023-03-03T10:46:53;13.20;;;5.75;;
72569;SDS011;60594;50.204;8.844;2023-03-03T10:49:26;14.77;;;6.18;;
72569;SDS011;60594;50.204;8.844;2023-03-03T10:57:43;13.32;;;5.50;;
72569;SDS011;60594;50.204;8.844;2023-03-03T11:00:24;13.77;;;6.68;;
72569;SDS011;60594;50.204;8.844;2023-03-03T11:05:47;15.27;;;5.85;;
72569;SDS011;60594;50.204;8.844;2023-03-03T11:16:34;13.63;;;5.05;;
72569;SDS011;60594;50.204;8.844;2023-03-03T11:30:40;12.70;;;5.35;;
72569;SDS011;60594;50.204;8.844;2023-03-03T11:33:20;13.50;;;6.55;;
72569;SDS011;60594;50.204;8.844;2023-03-03T11:38:43;13.50;;;5.95;;
72569;SDS011;60594;50.204;8.844;2023-03-03T11:41:31;14.00;;;6.07;;
72569;SDS011;60594;50.204;8.844;2023-03-03T11:44:05;13.15;;;6.03;;
72569;SDS011;60594;50.204;8.844;2023-03-03T11:49:42;12.07;;;5.45;;
72569;SDS011;60594;50.204;8.844;2023-03-03T11:57:45;13.02;;;5.70;;
72569;SDS011;60594;50.204;8.844;2023-03-03T12:00:30;11.70;;;5.00;;
72569;SDS011;60594;50.204;8.844;2023-03-03T12:11:19;11.60;;;5.05;;
72569;SDS011;60594;50.204;8.844;2023-03-03T12:13:57;10.73;;;5.75;;
72569;SDS011;60594;50.204;8.844;2023-03-03T12:16:40;14.10;;;6.82;;
72569;SDS011;60594;50.204;8.844;2023-03-03T12:19:24;14.85;;;6.03;;
72569;SDS011;60594;50.204;8.844;2023-03-03T12:33:43;12.32;;;5.60;;
72569;SDS011;60594;50.204;8.844;2023-03-03T12:39:16;14.13;;;5.80;;
72569;SDS011;60594;50.204;8.844;2023-03-03T12:42:09;13.20;;;5.60;;
72569;SDS011;60594;50.204;8.844;2023-03-03T12:44:55;14.35;;;6.35;;
72569;SDS011;60594;50.204;8.844;2023-03-03T12:52:45;13.50;;;5.30;;
72569;SDS011;60594;50.204;8.844;2023-03-03T12:58:22;13.23;;;5.57;;
72569;SDS011;60594;50.204;8.844;2023-03-03T13:03:48;13.40;;;5.78;;
72569;SDS011;60594;50.204;8.844;2023-03-03T13:06:22;9.20;;;4.45;;
72569;SDS011;60594;50.204;8.844;2023-03-03T13:20:21;12.85;;;5.03;;
72569;SDS011;60594;50.204;8.844;2023-03-03T13:22:58;12.35;;;4.75;;
72569;SDS011;60594;50.204;8.844;2023-03-03T13:28:20;11.10;;;5.63;;
72569;SDS011;60594;50.204;8.844;2023-03-03T13:31:14;15.52;;;5.40;;
72569;SDS011;60594;50.204;8.844;2023-03-03T13:36:19;11.98;;;5.20;;
72569;SDS011;60594;50.204;8.844;2023-03-03T13:38:52;12.43;;;5.47;;
72569;SDS011;60594;50.204;8.844;2023-03-03T13:41:23;11.25;;;4.20;;
72569;SDS011;60594;50.204;8.844;2023-03-03T13:49:31;11.57;;;4.72;;
72569;SDS011;60594;50.204;8.844;2023-03-03T13:52:10;11.27;;;4.82;;
72569;SDS011;60594;50.204;8.844;2023-03-03T13:57:17;12.30;;;5.18;;
72569;SDS011;60594;50.204;8.844;2023-03-03T14:02:46;15.32;;;5.80;;
72569;SDS011;60594;50.204;8.844;2023-03-03T14:08:08;11.68;;;4.50;;
72569;SDS011;60594;50.204;8.844;2023-03-03T14:10:43;10.13;;;4.93;;
72569;SDS011;60594;50.204;8.844;2023-03-03T14:13:24;9.93;;;4.28;;
72569;SDS011;60594;50.204;8.844;2023-03-03T14:18:54;11.55;;;4.68;;
72569;SDS011;60594;50.204;8.844;2023-03-03T14:21:32;11.10;;;5.43;;
72569;SDS011;60594;50.204;8.844;2023-03-03T14:26:51;11.80;;;4.60;;
72569;SDS011;60594;50.204;8.844;2023-03-03T14:31:54;10.27;;;4.47;;
72569;SDS011;60594;50.204;8.844;2023-03-03T14:34:33;12.40;;;4.80;;
72569;SDS011;60594;50.204;8.844;2023-03-03T14:45:14;12.35;;;4.88;;
72569;SDS011;60594;50.204;8.844;2023-03-03T14:47:54;12.35;;;4.97;;
72569;SDS011;60594;50.204;8.844;2023-03-03T14:50:55;10.52;;;4.45;;
72569;SDS011;60594;50.204;8.844;2023-03-03T14:55:44;11.10;;;4.88;;
72569;SDS011;60594;50.204;8.844;2023-03-03T14:58:37;11.98;;;4.72;;
72569;SDS011;60594;50.204;8.844;2023-03-03T15:03:44;12.20;;;4.30;;
72569;SDS011;60594;50.204;8.844;2023-03-03T15:06:26;8.68;;;4.13;;
72569;SDS011;60594;50.204;8.844;2023-03-03T15:20:02;10.65;;;4.32;;
72569;SDS011;60594;50.204;8.844;2023-03-03T15:22:50;12.50;;;5.82;;
72569;SDS011;60594;50.204;8.844;2023-03-03T15:25:26;10.38;;;3.72;;
72569;SDS011;60594;50.204;8.844;2023-03-03T15:28:02;9.75;;;3.90;;
72569;SDS011;60594;50.204;8.844;2023-03-03T15:35:49;10.18;;;4.60;;
72569;SDS011;60594;50.204;8.844;2023-03-03T15:40:56;9.90;;;4.55;;
72569;SDS011;60594;50.204;8.844;2023-03-03T15:43:47;11.10;;;3.80;;
72569;SDS011;60594;50.204;8.844;2023-03-03T15:47:08;9.95;;;4.75;;
72569;SDS011;60594;50.204;8.844;2023-03-03T15:52:19;9.63;;;3.75;;
72569;SDS011;60594;50.204;8.844;2023-03-03T15:55:09;10.35;;;4.32;;
72569;SDS011;60594;50.204;8.844;2023-03-03T16:00:52;9.10;;;3.75;;
72569;SDS011;60594;50.204;8.844;2023-03-03T16:08:40;8.43;;;3.33;;
72569;SDS011;60594;50.204;8.844;2023-03-03T16:11:24;9.13;;;3.90;;
72569;SDS011;60594;50.204;8.844;2023-03-03T16:14:03;10.45;;;3.88;;
72569;SDS011;60594;50.204;8.844;2023-03-03T16:16:46;9.52;;;4.18;;
72569;SDS011;60594;50.204;8.844;2023-03-03T16:19:29;8.60;;;3.70;;
72569;SDS011;60594;50.204;8.844;2023-03-03T16:33:34;7.65;;;3.30;;
72569;SDS011;60594;50.204;8.844;2023-03-03T16:36:25;11.15;;;6.13;;
72569;SDS011;60594;50.204;8.844;2023-03-03T16:39:41;8.48;;;3.63;;
72569;SDS011;60594;50.204;8.844;2023-03-03T16:42:03;8.55;;;3.72;;
72569;SDS011;60594;50.204;8.844;2023-03-03T16:44:49;8.45;;;3.90;;
72569;SDS011;60594;50.204;8.844;2023-03-03T16:52:54;9.88;;;3.85;;
72569;SDS011;60594;50.204;8.844;2023-03-03T16:55:31;9.95;;;4.25;;
72569;SDS011;60594;50.204;8.844;2023-03-03T16:58:10;10.32;;;5.38;;
72569;SDS011;60594;50.204;8.844;2023-03-03T17:00:40;11.15;;;3.92;;
72569;SDS011;60594;50.204;8.844;2023-03-03T17:03:33;8.05;;;4.32;;
72569;SDS011;60594;50.204;8.844;2023-03-03T17:20:48;10.93;;;4.53;;
72569;SDS011;60594;50.204;8.844;2023-03-03T17:25:53;9.13;;;4.32;;
72569;SDS011;60594;50.204;8.844;2023-03-03T17:28:39;7.97;;;4.07;;
72569;SDS011;60594;50.204;8.844;2023-03-03T17:31:49;7.70;;;3.38;;
72569;SDS011;60594;50.204;8.844;2023-03-03T17:40:13;8.98;;;3.60;;
72569;SDS011;60594;50.204;8.844;2023-03-03T17:42:54;12.13;;;4.10;;
72569;SDS011;60594;50.204;8.844;2023-03-03T17:45:28;10.68;;;4.05;;
72569;SDS011;60594;50.204;8.844;2023-03-03T17:48:16;11.52;;;3.88;;
72569;SDS011;60594;50.204;8.844;2023-03-03T17:52:03;9.93;;;3.72;;
72569;SDS011;60594;50.204;8.844;2023-03-03T18:05:55;9.45;;;3.97;;
72569;SDS011;60594;50.204;8.844;2023-03-03T18:17:18;9.63;;;4.30;;
72569;SDS011;60594;50.204;8.844;2023-03-03T18:24:57;9.40;;;4.90;;
72569;SDS011;60594;50.204;8.844;2023-03-03T18:27:27;10.18;;;4.38;;
72569;SDS011;60594;50.204;8.844;2023-03-03T18:30:17;9.90;;;4.47;;
72569;SDS011;60594;50.204;8.844;2023-03-03T18:43:46;10.95;;;5.13;;
72569;SDS011;60594;50.204;8.844;2023-03-03T18:48:49;10.25;;;4.15;;
72569;SDS011;60594;50.204;8.844;2023-03-03T18:56:42;11.18;;;5.25;;
72569;SDS011;60594;50.204;8.844;2023-03-03T18:59:38;10.40;;;4.53;;
72569;SDS011;60594;50.204;8.844;2023-03-03T19:04:50;14.60;;;6.75;;
72569;SDS011;60594;50.204;8.844;2023-03-03T19:07:23;9.30;;;4.03;;
72569;SDS011;60594;50.204;8.844;2023-03-03T19:09:56;11.45;;;5.47;;
72569;SDS011;60594;50.204;8.844;2023-03-03T19:20:37;10.75;;;5.85;;
72569;SDS011;60594;50.204;8.844;2023-03-03T19:23:07;10.15;;;4.97;;
72569;SDS011;60594;50.204;8.844;2023-03-03T19:25:39;11.95;;;4.97;;
72569;SDS011;60594;50.204;8.844;2023-03-03T19:31:24;8.93;;;4.18;;
72569;SDS011;60594;50.204;8.844;2023-03-03T19:34:06;8.30;;;3.53;;
72569;SDS011;60594;50.204;8.844;2023-03-03T19:39:23;11.23;;;5.07;;
72569;SDS011;60594;50.204;8.844;2023-03-03T19:42:00;8.73;;;4.40;;
72569;SDS011;60594;50.204;8.844;2023-03-03T19:47:53;10.90;;;4.05;;
72569;SDS011;60594;50.204;8.844;2023-03-03T19:50:42;10.40;;;4.68;;
72569;SDS011;60594;50.204;8.844;2023-03-03T19:53:24;9.57;;;4.28;;
72569;SDS011;60594;50.204;8.844;2023-03-03T19:56:20;9.20;;;4.00;;
72569;SDS011;60594;50.204;8.844;2023-03-03T20:04:34;9.00;;;4.80;;
72569;SDS011;60594;50.204;8.844;2023-03-03T20:13:24;10.68;;;3.92;;
72569;SDS011;60594;50.204;8.844;2023-03-03T20:22:11;8.20;;;3.25;;
72569;SDS011;60594;50.204;8.844;2023-03-03T20:27:42;7.03;;;3.53;;
72569;SDS011;60594;50.204;8.844;2023-03-03T20:30:27;8.20;;;3.53;;
72569;SDS011;60594;50.204;8.844;2023-03-03T20:36:05;7.68;;;3.28;;
72569;SDS011;60594;50.204;8.844;2023-03-03T20:41:32;8.60;;;3.78;;
72569;SDS011;60594;50.204;8.844;2023-03-03T20:47:38;7.65;;;3.88;;
72569;SDS011;60594;50.204;8.844;2023-03-03T20:56:00;8.88;;;4.78;;
72569;SDS011;60594;50.204;8.844;2023-03-03T21:01:55;9.57;;;4.00;;
72569;SDS011;60594;50.204;8.844;2023-03-03T21:04:15;9.75;;;3.92;;
72569;SDS011;60594;50.204;8.844;2023-03-03T21:06:53;6.93;;;4.10;;
72569;SDS011;60594;50.204;8.844;2023-03-03T21:09:25;8.00;;;3.90;;
72569;SDS011;60594;50.204;8.844;2023-03-03T21:12:10;12.63;;;6.38;;
72569;SDS011;60594;50.204;8.844;2023-03-03T21:14:58;8.90;;;4.35;;
72569;SDS011;60594;50.204;8.844;2023-03-03T21:17:26;9.38;;;4.25;;
72569;SDS011;60594;50.204;8.844;2023-03-03T21:19:54;10.95;;;5.22;;